Time;durP1;ratioP1;P1;durP2;ratioP2;P2;SDS_P1;SDS_P2;PMS_P1;PMS_P2;Temp;Humidity;BMP_temperature;BMP_pressure;BME280_temperature;BME280_humidity;BME280_pressure;Samples;Min_cycle;Max_cycle;Signal;HPM_P1;HPM_P2
2022/08/08 00:00:38;;;;;;;2.10;1.80;;;;;;;;;;5046021;28;20403;-69
2022/08/08 00:03:21;;;;;;;1.20;1.10;;;;;;;;;;5046338;28;20184;-69
2022/08/08 00:06:00;;;;;;;2.37;1.30;;;;;;;;;;5042085;28;20188;-69
2022/08/08 00:08:30;;;;;;;3.00;1.57;;;;;;;;;;5043211;28;20183;-70
2022/08/08 00:10:58;;;;;;;2.27;1.30;;;;;;;;;;5044971;28;20208;-69
2022/08/08 00:13:41;;;;;;;2.53;1.30;;;;;;;;;;5027612;28;20179;-69
2022/08/08 00:16:09;;;;;;;1.07;1.03;;;;;;;;;;5043551;28;20186;-69
2022/08/08 00:18:47;;;;;;;4.37;1.50;;;;;;;;;;5031238;28;20202;-69
2022/08/08 00:21:18;;;;;;;3.40;1.40;;;;;;;;;;5028097;28;20277;-69
2022/08/08 00:23:51;;;;;;;2.53;1.60;;;;;;;;;;5046097;28;20282;-69
2022/08/08 00:26:20;;;;;;;1.17;1.10;;;;;;;;;;5052433;28;20200;-69
2022/08/08 00:28:48;;;;;;;1.40;1.27;;;;;;;;;;5035670;28;20189;-68
2022/08/08 00:31:17;;;;;;;1.30;1.20;;;;;;;;;;5034626;28;20258;-69
2022/08/08 00:33:47;;;;;;;1.00;1.00;;;;;;;;;;5037267;28;20185;-69
2022/08/08 00:36:22;;;;;;;2.43;1.23;;;;;;;;;;5044792;28;20185;-68
2022/08/08 00:38:51;;;;;;;2.10;1.40;;;;;;;;;;5043031;28;20182;-69
2022/08/08 00:41:28;;;;;;;1.80;1.30;;;;;;;;;;5045154;28;20194;-69
2022/08/08 00:43:59;;;;;;;1.07;1.07;;;;;;;;;;5036294;28;20178;-68
2022/08/08 00:46:37;;;;;;;1.97;1.30;;;;;;;;;;5054680;28;20182;-69
2022/08/08 00:49:17;;;;;;;1.00;1.00;;;;;;;;;;5050879;28;20192;-69
2022/08/08 00:51:46;;;;;;;1.40;1.30;;;;;;;;;;5048184;28;20290;-69
2022/08/08 00:54:26;;;;;;;1.40;1.30;;;;;;;;;;5047646;28;20281;-68
2022/08/08 00:57:10;;;;;;;1.43;1.33;;;;;;;;;;5029834;28;20183;-69
2022/08/08 00:59:55;;;;;;;4.03;1.20;;;;;;;;;;5046715;28;20181;-70
2022/08/08 01:02:35;;;;;;;1.40;1.30;;;;;;;;;;5032010;28;20188;-69
2022/08/08 01:05:07;;;;;;;1.67;1.30;;;;;;;;;;5031984;28;20190;-69
2022/08/08 01:07:45;;;;;;;1.30;1.20;;;;;;;;;;5041652;28;20179;-70
2022/08/08 01:10:27;;;;;;;1.30;1.20;;;;;;;;;;5051807;28;20195;-69
2022/08/08 01:13:11;;;;;;;1.20;1.10;;;;;;;;;;5055869;28;20196;-69
2022/08/08 01:15:55;;;;;;;1.10;1.10;;;;;;;;;;5050299;28;20174;-70
2022/08/08 01:18:23;;;;;;;1.40;1.30;;;;;;;;;;5051121;28;20201;-69
2022/08/08 01:21:07;;;;;;;1.23;1.17;;;;;;;;;;5047838;28;20216;-69
2022/08/08 01:23:32;;;;;;;1.23;1.20;;;;;;;;;;5050069;28;20587;-68
2022/08/08 01:26:03;;;;;;;1.20;1.20;;;;;;;;;;5034001;28;20191;-68
2022/08/08 01:28:37;;;;;;;1.00;1.00;;;;;;;;;;5047872;28;20217;-69
2022/08/08 01:31:05;;;;;;;1.50;1.40;;;;;;;;;;5035644;28;20275;-68
2022/08/08 01:33:49;;;;;;;1.10;1.10;;;;;;;;;;5037731;28;20176;-68
2022/08/08 01:36:14;;;;;;;1.20;1.10;;;;;;;;;;5034741;28;20197;-69
2022/08/08 01:38:58;;;;;;;1.50;1.40;;;;;;;;;;5051803;28;20184;-68
2022/08/08 01:41:30;;;;;;;3.30;2.97;;;;;;;;;;5035747;28;20185;-68
2022/08/08 01:44:18;;;;;;;4.10;1.37;;;;;;;;;;5051933;28;20185;-70
2022/08/08 01:46:43;;;;;;;1.30;1.20;;;;;;;;;;5014149;28;20209;-68
2022/08/08 01:49:11;;;;;;;1.30;1.20;;;;;;;;;;5027247;28;20272;-68
2022/08/08 01:51:42;;;;;;;1.37;1.20;;;;;;;;;;5052617;28;20309;-69
2022/08/08 01:54:17;;;;;;;1.40;1.30;;;;;;;;;;5050737;28;20223;-69
2022/08/08 01:56:51;;;;;;;1.43;1.30;;;;;;;;;;5052701;28;20183;-70
2022/08/08 01:59:22;;;;;;;1.30;1.20;;;;;;;;;;5035502;28;20179;-69
2022/08/08 02:02:07;;;;;;;2.63;1.40;;;;;;;;;;5053978;28;20174;-69
2022/08/08 02:04:42;;;;;;;1.40;1.30;;;;;;;;;;5046637;28;20206;-68
2022/08/08 02:07:26;;;;;;;1.00;1.00;;;;;;;;;;5050772;28;20268;-68
2022/08/08 02:10:14;;;;;;;1.30;1.20;;;;;;;;;;5049454;28;20213;-68
2022/08/08 02:12:54;;;;;;;1.60;1.40;;;;;;;;;;5055793;28;20187;-69
2022/08/08 02:15:30;;;;;;;1.50;1.30;;;;;;;;;;5032994;28;20263;-69
2022/08/08 02:17:59;;;;;;;1.77;1.20;;;;;;;;;;5048329;28;20478;-69
2022/08/08 02:20:36;;;;;;;1.10;1.10;;;;;;;;;;5032088;28;20187;-69
2022/08/08 02:23:19;;;;;;;1.50;1.40;;;;;;;;;;5048336;28;20175;-68
2022/08/08 02:25:55;;;;;;;1.30;1.20;;;;;;;;;;5036658;28;20191;-68
2022/08/08 02:28:29;;;;;;;2.33;1.23;;;;;;;;;;5046239;28;20205;-68
2022/08/08 02:31:02;;;;;;;3.27;1.43;;;;;;;;;;5046326;28;20208;-69
2022/08/08 02:33:46;;;;;;;1.50;1.40;;;;;;;;;;5048179;28;20175;-69
2022/08/08 02:36:23;;;;;;;1.03;1.03;;;;;;;;;;5032340;28;20186;-68
2022/08/08 02:38:58;;;;;;;1.73;1.17;;;;;;;;;;5033782;28;20189;-69
2022/08/08 02:41:42;;;;;;;1.43;1.33;;;;;;;;;;5032920;28;20186;-68
2022/08/08 02:44:26;;;;;;;1.40;1.30;;;;;;;;;;5049539;28;20188;-68
2022/08/08 02:47:09;;;;;;;1.33;1.23;;;;;;;;;;5046438;28;20183;-68
2022/08/08 02:49:37;;;;;;;1.87;1.27;;;;;;;;;;5042650;28;20187;-69
2022/08/08 02:52:21;;;;;;;2.43;1.30;;;;;;;;;;5050896;28;20216;-68
2022/08/08 02:54:55;;;;;;;3.17;1.40;;;;;;;;;;5037375;28;20237;-68
2022/08/08 02:57:41;;;;;;;1.50;1.40;;;;;;;;;;5051525;28;20233;-69
2022/08/08 03:00:09;;;;;;;1.53;1.43;;;;;;;;;;5009115;28;20186;-69
2022/08/08 03:02:52;;;;;;;2.40;1.13;;;;;;;;;;5053762;28;20179;-69
2022/08/08 03:05:27;;;;;;;1.47;1.23;;;;;;;;;;5032776;28;20178;-68
2022/08/08 03:07:52;;;;;;;1.53;1.43;;;;;;;;;;5045960;28;20248;-68
2022/08/08 03:10:20;;;;;;;2.40;1.50;;;;;;;;;;5050624;28;20299;-68
2022/08/08 03:12:45;;;;;;;2.30;1.43;;;;;;;;;;5033960;28;20178;-68
2022/08/08 03:15:29;;;;;;;2.30;1.30;;;;;;;;;;5046532;28;20203;-68
2022/08/08 03:17:57;;;;;;;2.33;1.90;;;;;;;;;;5032374;28;20186;-68
2022/08/08 03:20:22;;;;;;;1.37;1.27;;;;;;;;;;5040084;28;20196;-68
2022/08/08 03:22:52;;;;;;;1.38;1.30;;;;;;;;;;5049860;28;20186;-68
2022/08/08 03:25:19;;;;;;;1.73;1.60;;;;;;;;;;5049470;28;20186;-68
2022/08/08 03:27:51;;;;;;;2.03;1.30;;;;;;;;;;5043064;28;20182;-68
2022/08/08 03:30:19;;;;;;;1.23;1.20;;;;;;;;;;5042542;28;20249;-68
2022/08/08 03:35:28;;;;;;;1.50;1.30;;;;;;;;;;5045468;28;20219;-68
2022/08/08 03:37:54;;;;;;;2.80;1.50;;;;;;;;;;5029928;28;20175;-68
2022/08/08 03:40:20;;;;;;;2.50;2.30;;;;;;;;;;5029111;28;20180;-69
2022/08/08 03:42:46;;;;;;;1.80;1.70;;;;;;;;;;5033134;28;20198;-68
2022/08/08 03:45:22;;;;;;;1.63;1.53;;;;;;;;;;5029145;28;20223;-68
2022/08/08 03:48:13;;;;;;;1.60;1.50;;;;;;;;;;5032418;28;20189;-68
2022/08/08 03:50:46;;;;;;;1.60;1.50;;;;;;;;;;5027044;28;20295;-68
2022/08/08 03:53:13;;;;;;;1.50;1.40;;;;;;;;;;5030268;28;20224;-68
2022/08/08 03:55:39;;;;;;;1.80;1.50;;;;;;;;;;5030564;28;20189;-69
2022/08/08 03:58:04;;;;;;;2.70;1.50;;;;;;;;;;5013081;28;20196;-68
2022/08/08 04:00:29;;;;;;;3.07;2.83;;;;;;;;;;5010872;28;20182;-68
2022/08/08 04:03:01;;;;;;;1.93;1.70;;;;;;;;;;5014431;28;20190;-68
2022/08/08 04:05:33;;;;;;;3.63;1.67;;;;;;;;;;5031006;28;20224;-68
2022/08/08 04:07:59;;;;;;;1.77;1.67;;;;;;;;;;5014223;28;20171;-69
2022/08/08 04:10:25;;;;;;;2.07;1.60;;;;;;;;;;5030266;28;20209;-68
2022/08/08 04:12:50;;;;;;;1.53;1.43;;;;;;;;;;5013330;28;20208;-68
2022/08/08 04:15:15;;;;;;;2.10;1.60;;;;;;;;;;5030259;28;20177;-66
2022/08/08 04:17:41;;;;;;;1.87;1.77;;;;;;;;;;5018586;28;20193;-67
2022/08/08 04:20:06;;;;;;;2.80;1.67;;;;;;;;;;5032790;28;20213;-67
2022/08/08 04:22:31;;;;;;;1.80;1.47;;;;;;;;;;5033366;28;20186;-66
2022/08/08 04:24:57;;;;;;;1.40;1.30;;;;;;;;;;5032337;28;20188;-67
2022/08/08 04:27:22;;;;;;;3.77;1.87;;;;;;;;;;5016954;28;20173;-67
2022/08/08 04:29:47;;;;;;;1.57;1.47;;;;;;;;;;5016309;28;20179;-67
2022/08/08 04:32:13;;;;;;;2.27;1.70;;;;;;;;;;5015307;28;20217;-66
2022/08/08 04:34:41;;;;;;;3.03;1.60;;;;;;;;;;5019595;28;20195;-67
2022/08/08 04:37:07;;;;;;;1.83;1.53;;;;;;;;;;5025428;28;20187;-67
2022/08/08 04:39:32;;;;;;;1.77;1.67;;;;;;;;;;5014653;28;20182;-67
2022/08/08 04:41:57;;;;;;;1.67;1.57;;;;;;;;;;5006754;28;20187;-67
2022/08/08 04:44:23;;;;;;;1.87;1.70;;;;;;;;;;5017370;28;20171;-67
2022/08/08 04:46:48;;;;;;;1.90;1.80;;;;;;;;;;5038794;28;20189;-67
2022/08/08 04:49:13;;;;;;;2.10;1.73;;;;;;;;;;5018808;28;20177;-67
2022/08/08 04:51:38;;;;;;;1.63;1.53;;;;;;;;;;5031237;28;20222;-66
2022/08/08 04:54:03;;;;;;;1.70;1.60;;;;;;;;;;5015217;28;20257;-73
2022/08/08 04:56:29;;;;;;;1.70;1.60;;;;;;;;;;5028089;28;20211;-67
2022/08/08 04:58:54;;;;;;;2.27;2.17;;;;;;;;;;5016124;28;20278;-68
2022/08/08 05:01:19;;;;;;;1.90;1.80;;;;;;;;;;5038355;28;20265;-67
2022/08/08 05:03:44;;;;;;;3.00;1.70;;;;;;;;;;5016987;28;20256;-67
2022/08/08 05:06:10;;;;;;;2.20;1.43;;;;;;;;;;5031308;28;20182;-67
2022/08/08 05:08:35;;;;;;;1.77;1.67;;;;;;;;;;5024958;28;20191;-67
2022/08/08 05:11:00;;;;;;;1.70;1.60;;;;;;;;;;5033402;28;20206;-68
2022/08/08 05:13:25;;;;;;;1.57;1.47;;;;;;;;;;5030517;28;20272;-67
2022/08/08 05:15:50;;;;;;;1.80;1.70;;;;;;;;;;5029328;28;20186;-67
2022/08/08 05:18:16;;;;;;;1.70;1.60;;;;;;;;;;5013177;28;20258;-67
2022/08/08 05:20:41;;;;;;;1.67;1.57;;;;;;;;;;5027483;28;20175;-67
2022/08/08 05:23:06;;;;;;;1.60;1.50;;;;;;;;;;5015116;28;20182;-67
2022/08/08 05:25:32;;;;;;;3.80;3.37;;;;;;;;;;5023413;28;20182;-67
2022/08/08 05:27:57;;;;;;;5.93;2.50;;;;;;;;;;5028504;28;20175;-67
2022/08/08 05:30:22;;;;;;;6.73;1.73;;;;;;;;;;5032222;28;20189;-66
2022/08/08 05:32:47;;;;;;;2.60;1.70;;;;;;;;;;5019010;28;20198;-66
2022/08/08 05:35:13;;;;;;;4.63;2.13;;;;;;;;;;5027736;28;20205;-68
2022/08/08 05:37:41;;;;;;;4.77;2.07;;;;;;;;;;5026427;28;20183;-67
2022/08/08 05:40:07;;;;;;;2.13;1.93;;;;;;;;;;5008269;28;20180;-68
2022/08/08 05:42:35;;;;;;;5.47;3.93;;;;;;;;;;5012953;28;20175;-67
2022/08/08 05:45:01;;;;;;;1.83;1.73;;;;;;;;;;5014190;28;20174;-67
2022/08/08 05:47:26;;;;;;;3.13;1.87;;;;;;;;;;5010721;28;20174;-67
2022/08/08 05:49:52;;;;;;;1.60;1.43;;;;;;;;;;5030372;28;20171;-67
2022/08/08 05:52:17;;;;;;;4.23;2.30;;;;;;;;;;5012524;28;20191;-67
2022/08/08 05:54:43;;;;;;;4.07;2.00;;;;;;;;;;5047677;28;20223;-68
2022/08/08 05:57:12;;;;;;;3.60;2.80;;;;;;;;;;5050659;28;20176;-68
2022/08/08 05:59:40;;;;;;;2.10;2.00;;;;;;;;;;5035684;28;20180;-67
2022/08/08 06:03:09;;;;;;;3.47;1.90;;;;;;;;;;5028283;28;20181;-69
2022/08/08 06:04:57;;;;;;;4.07;1.80;;;;;;;;;;5048218;28;20188;-67
2022/08/08 06:07:23;;;;;;;2.13;1.80;;;;;;;;;;5040007;28;20191;-68
2022/08/08 06:09:49;;;;;;;1.57;1.47;;;;;;;;;;5059021;28;20186;-68
2022/08/08 06:12:14;;;;;;;1.80;1.70;;;;;;;;;;5050051;28;20213;-67
2022/08/08 06:14:40;;;;;;;1.90;1.70;;;;;;;;;;5033919;28;20251;-68
2022/08/08 06:17:05;;;;;;;1.57;1.47;;;;;;;;;;5032662;28;20239;-68
2022/08/08 06:19:31;;;;;;;1.87;1.53;;;;;;;;;;5032995;28;20216;-67
2022/08/08 06:21:57;;;;;;;2.10;1.97;;;;;;;;;;5038090;28;20193;-67
2022/08/08 06:24:22;;;;;;;1.90;1.80;;;;;;;;;;5050115;28;20199;-68
2022/08/08 06:26:56;;;;;;;2.00;1.90;;;;;;;;;;5034448;28;20192;-68
2022/08/08 06:29:29;;;;;;;1.97;1.80;;;;;;;;;;5046529;28;20172;-68
2022/08/08 06:31:58;;;;;;;7.37;2.53;;;;;;;;;;5047060;28;20206;-67
2022/08/08 06:34:25;;;;;;;1.80;1.70;;;;;;;;;;5036605;28;20178;-67
2022/08/08 06:36:51;;;;;;;1.83;1.73;;;;;;;;;;5034956;28;20189;-68
2022/08/08 06:39:19;;;;;;;3.17;2.10;;;;;;;;;;5050698;28;20176;-68
2022/08/08 06:41:53;;;;;;;2.37;2.17;;;;;;;;;;5059801;28;20194;-67
2022/08/08 06:44:20;;;;;;;2.13;2.03;;;;;;;;;;5036161;28;20181;-68
2022/08/08 06:46:46;;;;;;;2.63;1.77;;;;;;;;;;5052020;28;20186;-67
2022/08/08 06:49:11;;;;;;;2.17;2.00;;;;;;;;;;5032762;28;20182;-67
2022/08/08 06:51:36;;;;;;;1.90;1.80;;;;;;;;;;5031894;28;20214;-69
2022/08/08 06:54:02;;;;;;;3.93;2.00;;;;;;;;;;5034449;28;20224;-67
2022/08/08 06:56:28;;;;;;;2.40;2.20;;;;;;;;;;5048844;28;20265;-68
2022/08/08 06:58:53;;;;;;;2.83;1.83;;;;;;;;;;5032947;28;20174;-67
2022/08/08 07:01:19;;;;;;;1.90;1.80;;;;;;;;;;5033082;28;20217;-68
2022/08/08 07:03:44;;;;;;;2.50;2.30;;;;;;;;;;5050655;28;20183;-67
2022/08/08 07:06:14;;;;;;;2.30;2.10;;;;;;;;;;5036555;28;20189;-67
2022/08/08 07:08:44;;;;;;;2.47;2.27;;;;;;;;;;5042635;28;20176;-68
2022/08/08 07:11:10;;;;;;;3.03;2.43;;;;;;;;;;5042954;28;20249;-70
2022/08/08 07:13:42;;;;;;;4.77;2.20;;;;;;;;;;5030825;28;20207;-67
2022/08/08 07:16:15;;;;;;;2.67;2.47;;;;;;;;;;5030008;28;20178;-68
2022/08/08 07:18:46;;;;;;;2.70;2.50;;;;;;;;;;5058310;28;20211;-67
2022/08/08 07:21:15;;;;;;;3.07;2.50;;;;;;;;;;5048215;28;20183;-67
2022/08/08 07:23:52;;;;;;;2.37;2.23;;;;;;;;;;5030369;28;20195;-68
2022/08/08 07:26:20;;;;;;;3.13;2.83;;;;;;;;;;5047205;28;20192;-68
2022/08/08 07:28:45;;;;;;;2.77;2.40;;;;;;;;;;5048872;28;20188;-68
2022/08/08 07:31:11;;;;;;;2.43;2.20;;;;;;;;;;5044084;28;20283;-68
2022/08/08 07:33:37;;;;;;;3.60;3.30;;;;;;;;;;5056581;28;20171;-68
2022/08/08 07:36:04;;;;;;;3.70;3.40;;;;;;;;;;5046087;28;20245;-68
2022/08/08 07:38:30;;;;;;;4.83;2.90;;;;;;;;;;5048826;28;20188;-68
2022/08/08 07:40:59;;;;;;;3.83;3.43;;;;;;;;;;5037871;28;20192;-68
2022/08/08 07:43:24;;;;;;;2.70;2.50;;;;;;;;;;5048526;28;20178;-68
2022/08/08 07:45:49;;;;;;;3.00;2.70;;;;;;;;;;5048062;28;20187;-68
2022/08/08 07:48:15;;;;;;;3.13;2.53;;;;;;;;;;5032925;28;20182;-68
2022/08/08 07:50:45;;;;;;;3.73;2.67;;;;;;;;;;5047502;28;20242;-69
2022/08/08 07:53:32;;;;;;;3.20;2.40;;;;;;;;;;5041103;28;20212;-68
2022/08/08 07:55:59;;;;;;;4.10;2.60;;;;;;;;;;5027726;28;20186;-68
2022/08/08 07:58:31;;;;;;;2.60;2.40;;;;;;;;;;5048052;28;20186;-68
2022/08/08 08:01:07;;;;;;;2.47;2.27;;;;;;;;;;5032243;28;20202;-68
2022/08/08 08:03:44;;;;;;;2.10;2.00;;;;;;;;;;5035077;28;20179;-69
2022/08/08 08:06:10;;;;;;;2.47;2.37;;;;;;;;;;5043531;28;20188;-67
2022/08/08 08:08:36;;;;;;;2.80;2.17;;;;;;;;;;5040532;28;20195;-68
2022/08/08 08:11:02;;;;;;;2.43;2.23;;;;;;;;;;5051042;28;20195;-67
2022/08/08 08:13:39;;;;;;;2.90;2.70;;;;;;;;;;5045835;28;20171;-68
2022/08/08 08:16:08;;;;;;;2.97;2.50;;;;;;;;;;5047906;28;20178;-69
2022/08/08 08:18:44;;;;;;;4.43;2.63;;;;;;;;;;5048730;28;20206;-68
2022/08/08 08:21:10;;;;;;;3.23;2.30;;;;;;;;;;5049168;28;20184;-68
2022/08/08 08:23:35;;;;;;;2.60;2.40;;;;;;;;;;5032347;28;20178;-68
2022/08/08 08:26:01;;;;;;;3.27;2.40;;;;;;;;;;5052001;28;20230;-68
2022/08/08 08:28:26;;;;;;;2.33;2.10;;;;;;;;;;5050132;28;20189;-68
2022/08/08 08:30:55;;;;;;;3.63;2.43;;;;;;;;;;5051163;28;20260;-68
2022/08/08 08:33:20;;;;;;;2.60;2.40;;;;;;;;;;5033410;28;20213;-68
2022/08/08 08:35:46;;;;;;;2.50;2.30;;;;;;;;;;5029437;28;20192;-69
2022/08/08 08:38:11;;;;;;;2.47;2.27;;;;;;;;;;5025111;28;20185;-68
2022/08/08 08:40:36;;;;;;;2.63;2.10;;;;;;;;;;5032906;28;20194;-68
2022/08/08 08:43:02;;;;;;;3.00;2.20;;;;;;;;;;5032560;28;20540;-69
2022/08/08 08:45:27;;;;;;;2.22;2.13;;;;;;;;;;5049279;28;20178;-68
2022/08/08 08:47:53;;;;;;;3.10;2.60;;;;;;;;;;5033121;28;20234;-68
2022/08/08 08:50:19;;;;;;;2.23;2.03;;;;;;;;;;5030617;28;20357;-68
2022/08/08 08:52:44;;;;;;;6.70;2.33;;;;;;;;;;5057471;28;20228;-68
2022/08/08 08:55:14;;;;;;;2.60;2.40;;;;;;;;;;5032715;28;20266;-68
2022/08/08 08:57:41;;;;;;;2.60;2.20;;;;;;;;;;5013643;28;20186;-68
2022/08/08 09:00:07;;;;;;;1.98;1.88;;;;;;;;;;5032675;28;20262;-68
2022/08/08 09:02:33;;;;;;;1.90;1.80;;;;;;;;;;5025632;28;20261;-69
2022/08/08 09:05:01;;;;;;;2.22;2.03;;;;;;;;;;5022295;28;20203;-68
2022/08/08 09:07:27;;;;;;;2.20;2.00;;;;;;;;;;5026042;28;20230;-68
2022/08/08 09:09:52;;;;;;;4.47;1.95;;;;;;;;;;5041697;28;20186;-68
2022/08/08 09:12:20;;;;;;;6.68;2.72;;;;;;;;;;5033846;28;20217;-68
2022/08/08 09:14:45;;;;;;;1.90;1.70;;;;;;;;;;5040939;28;20183;-68
2022/08/08 09:17:12;;;;;;;2.10;1.75;;;;;;;;;;5021265;28;20193;-69
2022/08/08 09:19:38;;;;;;;1.95;1.85;;;;;;;;;;5039993;28;20194;-68
2022/08/08 09:22:04;;;;;;;2.53;1.60;;;;;;;;;;5020072;28;20182;-70
2022/08/08 09:24:30;;;;;;;1.80;1.70;;;;;;;;;;5031757;28;20174;-68
2022/08/08 09:27:01;;;;;;;2.08;1.88;;;;;;;;;;5032789;28;20186;-70
2022/08/08 09:29:30;;;;;;;5.10;2.13;;;;;;;;;;5017757;28;20202;-69
2022/08/08 09:31:55;;;;;;;2.20;2.00;;;;;;;;;;5039458;28;20195;-69
2022/08/08 09:34:23;;;;;;;4.05;2.35;;;;;;;;;;5014175;28;20218;-68
2022/08/08 09:36:52;;;;;;;3.92;1.90;;;;;;;;;;5019929;28;20179;-68
2022/08/08 09:39:19;;;;;;;3.45;1.60;;;;;;;;;;5008762;28;20182;-68
2022/08/08 09:41:47;;;;;;;2.13;1.80;;;;;;;;;;5021943;28;20278;-69
2022/08/08 09:44:19;;;;;;;2.35;1.70;;;;;;;;;;5015505;28;20179;-69
2022/08/08 09:46:48;;;;;;;3.92;2.00;;;;;;;;;;5031869;28;20186;-69
2022/08/08 09:49:16;;;;;;;2.08;1.90;;;;;;;;;;5016904;28;20179;-68
2022/08/08 09:51:41;;;;;;;2.00;1.80;;;;;;;;;;5041104;28;20236;-69
2022/08/08 09:54:07;;;;;;;2.35;1.90;;;;;;;;;;5016794;28;20223;-69
2022/08/08 09:56:33;;;;;;;12.50;2.22;;;;;;;;;;5013565;28;20486;-69
2022/08/08 09:59:03;;;;;;;2.00;1.90;;;;;;;;;;5032491;28;20240;-70
2022/08/08 10:01:29;;;;;;;2.75;2.03;;;;;;;;;;5006144;28;20186;-68
2022/08/08 10:03:56;;;;;;;2.10;1.90;;;;;;;;;;5028705;28;20181;-69
2022/08/08 10:06:21;;;;;;;4.93;1.98;;;;;;;;;;5033858;28;21044;-71
2022/08/08 10:08:48;;;;;;;2.00;1.75;;;;;;;;;;5027119;28;20182;-69
2022/08/08 10:11:17;;;;;;;2.08;1.88;;;;;;;;;;5028864;28;20209;-69
2022/08/08 10:13:53;;;;;;;1.80;1.70;;;;;;;;;;5026070;28;20179;-68
2022/08/08 10:16:18;;;;;;;2.03;1.90;;;;;;;;;;5019055;28;20173;-68
2022/08/08 10:18:43;;;;;;;2.10;1.88;;;;;;;;;;5024760;28;20206;-68
2022/08/08 10:21:10;;;;;;;2.03;1.85;;;;;;;;;;5032813;28;20182;-68
2022/08/08 10:23:39;;;;;;;1.80;1.70;;;;;;;;;;5026642;28;20214;-69
2022/08/08 10:26:05;;;;;;;3.03;2.05;;;;;;;;;;5004691;28;20246;-68
2022/08/08 10:28:31;;;;;;;2.58;1.75;;;;;;;;;;5030141;28;20267;-69
2022/08/08 10:30:57;;;;;;;2.60;1.85;;;;;;;;;;5032846;28;20241;-69
2022/08/08 10:33:30;;;;;;;3.17;1.90;;;;;;;;;;5017152;28;20179;-69
2022/08/08 10:35:58;;;;;;;1.77;1.60;;;;;;;;;;5010466;28;20183;-69
2022/08/08 10:38:24;;;;;;;2.03;1.73;;;;;;;;;;5037872;28;20182;-69
2022/08/08 10:40:50;;;;;;;2.17;1.77;;;;;;;;;;5021294;28;20206;-69
2022/08/08 10:43:16;;;;;;;3.15;2.10;;;;;;;;;;5008715;28;20507;-69
2022/08/08 10:45:46;;;;;;;3.85;2.03;;;;;;;;;;5015754;28;20269;-68
2022/08/08 10:48:12;;;;;;;1.80;1.70;;;;;;;;;;5012557;28;20264;-69
2022/08/08 10:50:37;;;;;;;2.00;1.90;;;;;;;;;;5037153;28;20228;-69
2022/08/08 10:53:03;;;;;;;4.20;2.20;;;;;;;;;;5014770;28;20190;-69
2022/08/08 10:55:29;;;;;;;2.05;1.80;;;;;;;;;;5058389;28;20185;-69
2022/08/08 10:57:58;;;;;;;1.98;1.83;;;;;;;;;;5042830;28;20178;-69
2022/08/08 11:00:24;;;;;;;2.00;1.83;;;;;;;;;;5032806;28;20174;-68
2022/08/08 11:02:50;;;;;;;3.10;1.90;;;;;;;;;;5047297;28;20178;-69
2022/08/08 11:05:16;;;;;;;1.90;1.73;;;;;;;;;;5032175;28;20198;-69
2022/08/08 11:07:46;;;;;;;1.70;1.60;;;;;;;;;;5031136;28;20212;-68
2022/08/08 11:10:12;;;;;;;1.92;1.83;;;;;;;;;;5032059;28;20186;-69
2022/08/08 11:13:04;;;;;;;2.85;2.10;;;;;;;;;;5049154;28;20211;-69
2022/08/08 11:15:29;;;;;;;2.45;1.80;;;;;;;;;;5042805;28;20209;-69
2022/08/08 11:17:55;;;;;;;1.90;1.80;;;;;;;;;;5042688;28;20233;-69
2022/08/08 11:20:21;;;;;;;2.47;1.55;;;;;;;;;;5033550;28;20195;-68
2022/08/08 11:22:48;;;;;;;2.28;1.80;;;;;;;;;;5050286;28;20178;-69
2022/08/08 11:25:14;;;;;;;2.63;1.85;;;;;;;;;;5035711;28;20178;-68
2022/08/08 11:27:41;;;;;;;1.80;1.70;;;;;;;;;;5046369;28;20192;-69
2022/08/08 11:30:09;;;;;;;3.60;2.00;;;;;;;;;;5031138;28;20178;-69
2022/08/08 11:32:38;;;;;;;1.90;1.80;;;;;;;;;;5034646;28;20202;-69
2022/08/08 11:35:03;;;;;;;1.85;1.75;;;;;;;;;;5047936;28;20284;-69
2022/08/08 11:37:29;;;;;;;2.03;1.80;;;;;;;;;;5041415;28;20634;-69
2022/08/08 11:39:55;;;;;;;2.03;1.92;;;;;;;;;;5030546;28;20174;-69
2022/08/08 11:42:20;;;;;;;1.98;1.88;;;;;;;;;;5048777;28;20294;-69
2022/08/08 11:44:46;;;;;;;1.90;1.80;;;;;;;;;;5051816;28;20203;-69
2022/08/08 11:47:12;;;;;;;1.83;1.73;;;;;;;;;;5029594;28;20185;-69
2022/08/08 11:49:38;;;;;;;2.55;2.35;;;;;;;;;;5029094;28;20188;-69
2022/08/08 11:52:12;;;;;;;1.92;1.83;;;;;;;;;;5044719;28;20247;-69
2022/08/08 11:54:41;;;;;;;2.08;1.98;;;;;;;;;;5038251;28;20221;-69
2022/08/08 11:57:09;;;;;;;3.90;2.65;;;;;;;;;;5012109;28;20186;-68
2022/08/08 11:59:34;;;;;;;3.38;2.22;;;;;;;;;;5018883;28;20225;-69
2022/08/08 12:02:03;;;;;;;2.75;2.17;;;;;;;;;;5026538;28;20176;-70
2022/08/08 12:04:29;;;;;;;3.30;2.30;;;;;;;;;;5034099;28;20233;-70
2022/08/08 12:07:01;;;;;;;4.00;2.60;;;;;;;;;;5030750;28;20174;-70
2022/08/08 12:09:27;;;;;;;3.67;2.30;;;;;;;;;;5014058;28;20179;-70
2022/08/08 12:11:52;;;;;;;2.75;2.40;;;;;;;;;;5029951;28;20314;-69
2022/08/08 12:14:24;;;;;;;2.10;2.00;;;;;;;;;;5031512;28;20254;-69
2022/08/08 12:16:53;;;;;;;2.00;1.80;;;;;;;;;;5017885;28;20175;-69
2022/08/08 12:19:20;;;;;;;2.15;1.95;;;;;;;;;;5009779;28;20221;-69
2022/08/08 12:21:45;;;;;;;2.97;1.70;;;;;;;;;;5030461;28;20274;-69
2022/08/08 12:24:12;;;;;;;2.47;2.28;;;;;;;;;;5009563;28;20265;-69
2022/08/08 12:26:37;;;;;;;2.90;2.00;;;;;;;;;;5033553;28;20186;-69
2022/08/08 12:29:21;;;;;;;3.90;2.10;;;;;;;;;;5016508;28;20196;-70
2022/08/08 12:31:59;;;;;;;2.00;1.90;;;;;;;;;;5017619;28;20206;-70
2022/08/08 12:34:36;;;;;;;4.18;2.25;;;;;;;;;;5010484;28;20174;-69
2022/08/08 12:37:04;;;;;;;2.35;2.13;;;;;;;;;;5030364;28;20182;-69
2022/08/08 12:39:30;;;;;;;2.05;1.95;;;;;;;;;;5031862;28;20230;-69
2022/08/08 12:41:59;;;;;;;2.47;2.33;;;;;;;;;;5034710;28;20187;-70
2022/08/08 12:44:28;;;;;;;2.50;2.30;;;;;;;;;;5048593;28;20173;-69
2022/08/08 12:46:54;;;;;;;2.33;2.13;;;;;;;;;;5018745;28;20191;-70
2022/08/08 12:49:25;;;;;;;2.92;2.60;;;;;;;;;;5027261;28;20179;-69
2022/08/08 12:51:51;;;;;;;2.95;2.10;;;;;;;;;;5017299;28;20203;-70
2022/08/08 12:54:21;;;;;;;4.45;2.17;;;;;;;;;;5029803;28;20222;-70
2022/08/08 12:56:46;;;;;;;2.92;2.42;;;;;;;;;;5036214;28;20186;-69
2022/08/08 12:59:21;;;;;;;2.30;2.10;;;;;;;;;;5036672;28;20186;-69
2022/08/08 13:01:54;;;;;;;2.33;2.13;;;;;;;;;;5051377;28;20293;-69
2022/08/08 13:04:24;;;;;;;2.92;2.25;;;;;;;;;;5050324;28;20182;-69
2022/08/08 13:07:00;;;;;;;2.72;2.13;;;;;;;;;;5040076;28;20185;-70
2022/08/08 13:09:29;;;;;;;2.63;2.10;;;;;;;;;;5040689;28;20189;-70
2022/08/08 13:11:54;;;;;;;2.67;2.03;;;;;;;;;;5030440;28;20209;-69
2022/08/08 13:14:19;;;;;;;3.45;1.92;;;;;;;;;;5051507;28;20170;-69
2022/08/08 13:16:45;;;;;;;2.92;2.05;;;;;;;;;;5029180;28;20186;-70
2022/08/08 13:19:10;;;;;;;3.13;2.53;;;;;;;;;;5030572;28;20199;-70
2022/08/08 13:21:43;;;;;;;3.63;2.30;;;;;;;;;;5032129;28;20186;-70
2022/08/08 13:24:08;;;;;;;2.38;2.00;;;;;;;;;;5034486;28;20204;-69
2022/08/08 13:26:34;;;;;;;2.20;2.10;;;;;;;;;;5035899;28;20171;-70
2022/08/08 13:29:06;;;;;;;3.00;2.53;;;;;;;;;;5050916;28;20178;-69
2022/08/08 13:31:32;;;;;;;3.17;2.28;;;;;;;;;;5049921;28;20209;-70
2022/08/08 13:33:57;;;;;;;5.47;2.35;;;;;;;;;;5050913;28;20175;-69
2022/08/08 13:36:22;;;;;;;4.55;2.47;;;;;;;;;;5053928;28;20173;-69
2022/08/08 13:38:47;;;;;;;3.83;2.40;;;;;;;;;;5037534;28;20184;-70
2022/08/08 13:41:13;;;;;;;2.90;2.20;;;;;;;;;;5030448;28;20524;-69
2022/08/08 13:43:38;;;;;;;2.03;1.83;;;;;;;;;;5048253;28;20448;-69
2022/08/08 13:46:07;;;;;;;2.50;2.30;;;;;;;;;;5034642;28;20228;-69
2022/08/08 13:48:41;;;;;;;4.07;2.20;;;;;;;;;;5047813;28;20177;-70
2022/08/08 13:51:07;;;;;;;2.17;1.98;;;;;;;;;;5040016;28;20212;-70
2022/08/08 13:53:32;;;;;;;4.43;2.30;;;;;;;;;;5035882;28;20214;-69
2022/08/08 13:56:01;;;;;;;2.30;2.10;;;;;;;;;;5055391;28;20219;-69
2022/08/08 13:58:27;;;;;;;2.33;2.13;;;;;;;;;;5052094;28;20198;-69
2022/08/08 14:00:53;;;;;;;3.65;2.08;;;;;;;;;;5050978;28;20210;-70
2022/08/08 14:03:26;;;;;;;2.17;1.80;;;;;;;;;;5049710;28;20227;-70
2022/08/08 14:05:51;;;;;;;2.15;1.95;;;;;;;;;;5059672;28;20178;-70
2022/08/08 14:08:16;;;;;;;3.55;2.30;;;;;;;;;;5041347;28;20231;-69
2022/08/08 14:10:41;;;;;;;2.80;2.53;;;;;;;;;;5047494;28;20186;-69
2022/08/08 14:13:14;;;;;;;2.40;2.20;;;;;;;;;;5049915;28;20228;-70
2022/08/08 14:15:39;;;;;;;2.70;2.35;;;;;;;;;;5048087;28;20185;-70
2022/08/08 14:18:05;;;;;;;2.92;1.92;;;;;;;;;;5049841;28;20202;-70
2022/08/08 14:20:34;;;;;;;5.03;2.05;;;;;;;;;;5045457;28;20186;-70
2022/08/08 14:23:04;;;;;;;3.30;2.13;;;;;;;;;;5052814;28;20174;-70
2022/08/08 14:25:29;;;;;;;2.50;2.20;;;;;;;;;;5048975;28;20208;-70
2022/08/08 14:27:54;;;;;;;2.10;2.00;;;;;;;;;;5033199;28;20178;-70
2022/08/08 14:30:20;;;;;;;3.15;1.98;;;;;;;;;;5032179;28;20240;-69
2022/08/08 14:32:46;;;;;;;5.95;2.17;;;;;;;;;;5036305;28;20216;-70
2022/08/08 14:35:12;;;;;;;2.17;1.98;;;;;;;;;;5041072;28;20189;-69
2022/08/08 14:37:41;;;;;;;2.38;2.08;;;;;;;;;;5053552;28;20177;-70
2022/08/08 14:40:07;;;;;;;4.07;2.08;;;;;;;;;;5053749;28;20209;-70
2022/08/08 14:42:34;;;;;;;3.53;2.10;;;;;;;;;;5034149;28;20185;-70
2022/08/08 14:45:01;;;;;;;1.80;1.70;;;;;;;;;;5035029;28;20181;-69
2022/08/08 14:47:26;;;;;;;2.95;2.13;;;;;;;;;;5029984;28;20194;-70
2022/08/08 14:50:01;;;;;;;4.70;2.22;;;;;;;;;;5046395;28;20240;-69
2022/08/08 14:52:37;;;;;;;2.00;1.67;;;;;;;;;;5026965;28;20205;-70
2022/08/08 14:55:02;;;;;;;3.25;1.65;;;;;;;;;;5044015;28;20275;-69
2022/08/08 14:57:27;;;;;;;1.90;1.80;;;;;;;;;;5029173;28;20222;-69